Maple Hill, Iowa
Current Conditions -  °F | °C
As of 3:52 AM on Wednesday 26 Nov 2014 (Local Time) from KEST Reporting Station
Light Snow Light Snow  
Wind Chill: 16°   Ceiling: 800
Heat Index: 26°   Visibility: 4mi
Dew Point: 24°   Wind: 10mph
Humidity: 92%   Direction: 130°SE
Pressure: 29.88"   Gusts: NA
Location:  43.4207°N, 94.5018°W
Report Text: KEST 260952Z AUTO 13009KT 4SM -SN BR OVC008 M03/M04 A2988 RMK AO2 SLP134 P0002 T10331044
Loading
Personal Weather Stations






























Interactive Weather Map New forecast layout! Learn more

10-Day Weather Forecast

Advertisements
Track Severe Weather on mobile